createdAt,value
2022-11-03T06:01:40.040Z,43.88
2022-11-03T06:04:20.744Z,42.70
2022-11-03T06:06:54.764Z,42.78
2022-11-03T06:09:25.389Z,42.08
2022-11-03T06:11:58.899Z,40.80
2022-11-03T06:14:28.274Z,38.87
2022-11-03T06:16:58.531Z,37.67
2022-11-03T06:19:28.115Z,39.35
2022-11-03T06:22:20.806Z,37.17
2022-11-03T06:24:56.145Z,34.67
2022-11-03T06:27:24.013Z,33.75
2022-11-03T06:29:53.375Z,30.92
2022-11-03T06:32:20.268Z,32.80
2022-11-03T06:34:51.727Z,34.17
2022-11-03T06:37:27.843Z,32.28
2022-11-03T06:40:00.233Z,33.67
2022-11-03T06:42:31.897Z,29.95
2022-11-03T06:44:59.210Z,33.78
2022-11-03T06:47:28.434Z,31.42
2022-11-03T06:50:01.444Z,30.20
2022-11-03T06:52:37.867Z,32.75
2022-11-03T06:55:26.479Z,31.90
2022-11-03T06:58:00.028Z,33.53
2022-11-03T07:00:39.709Z,29.73
2022-11-03T07:03:31.004Z,30.35
2022-11-03T07:06:05.734Z,33.95
2022-11-03T07:08:37.473Z,34.10
2022-11-03T07:11:25.988Z,34.78
2022-11-03T07:14:06.412Z,31.77
2022-11-03T07:16:40.732Z,31.63
2022-11-03T07:21:47.629Z,31.75
2022-11-03T07:24:41.861Z,29.05
2022-11-03T07:27:26.909Z,30.03
2022-11-03T07:29:58.451Z,31.80
2022-11-03T07:32:29.972Z,30.58
2022-11-03T07:35:15.863Z,32.80
2022-11-03T07:37:42.607Z,34.08
2022-11-03T07:40:18.397Z,35.92
2022-11-03T07:42:45.442Z,34.67
2022-11-03T07:45:42.177Z,33.42
2022-11-03T07:48:46.131Z,34.20
2022-11-03T07:51:29.005Z,34.03
2022-11-03T07:54:04.145Z,29.05
2022-11-03T07:56:39.109Z,34.83
2022-11-03T07:59:11.633Z,34.58
2022-11-03T08:01:42.416Z,36.92
2022-11-03T08:04:34.084Z,34.75
2022-11-03T08:07:01.334Z,34.42
2022-11-03T08:09:28.153Z,36.17
2022-11-03T08:11:54.894Z,36.03
2022-11-03T08:14:21.731Z,33.88
2022-11-03T08:16:48.391Z,34.72
2022-11-03T08:19:15.032Z,34.95
2022-11-03T08:21:41.769Z,37.75
2022-11-03T08:24:08.461Z,36.67
2022-11-03T08:26:36.457Z,37.00
2022-11-03T08:29:03.318Z,38.60
2022-11-03T08:31:34.419Z,38.40
2022-11-03T08:34:01.460Z,37.53
2022-11-03T08:36:28.344Z,37.05
2022-11-03T08:38:55.192Z,36.60
2022-11-03T08:41:22.089Z,36.85
2022-11-03T08:43:48.845Z,39.95
2022-11-03T08:46:18.154Z,40.00
2022-11-03T08:48:45.957Z,39.78
2022-11-03T08:51:14.286Z,40.05
2022-11-03T08:53:45.330Z,43.72
2022-11-03T08:56:14.362Z,42.95
2022-11-03T08:58:45.844Z,46.75
2022-11-03T09:01:13.155Z,44.35
2022-11-03T09:03:40.952Z,41.83
2022-11-03T09:06:08.632Z,40.58
2022-11-03T09:11:23.635Z,45.78
2022-11-03T09:13:50.404Z,43.72
2022-11-03T09:16:17.255Z,45.80
2022-11-03T09:18:46.868Z,41.67
2022-11-03T09:21:14.494Z,45.17
2022-11-03T09:23:41.228Z,42.40
2022-11-03T09:26:07.970Z,42.15
2022-11-03T09:28:41.969Z,42.25
2022-11-03T09:31:08.662Z,43.97
2022-11-03T09:33:35.424Z,40.38
2022-11-03T09:36:02.415Z,40.40
2022-11-03T09:38:31.170Z,40.70
2022-11-03T09:41:18.632Z,43.30
2022-11-03T09:43:56.709Z,42.17
2022-11-03T09:46:23.434Z,38.75
2022-11-03T09:48:50.335Z,41.25
2022-11-03T09:51:25.390Z,41.08
2022-11-03T09:53:52.201Z,46.28
2022-11-03T09:56:22.829Z,45.03
2022-11-03T09:58:54.096Z,43.38
2022-11-03T10:01:21.748Z,38.97
2022-11-03T10:04:00.020Z,42.80
2022-11-03T10:06:26.876Z,39.08
2022-11-03T10:08:53.585Z,40.08
2022-11-03T10:11:20.449Z,36.78
2022-11-03T10:13:52.152Z,40.20
2022-11-03T10:16:21.533Z,39.67
2022-11-03T10:18:49.436Z,38.60
2022-11-03T10:21:33.580Z,38.95
2022-11-03T10:24:00.530Z,35.67
2022-11-03T10:26:27.165Z,39.28
2022-11-03T10:29:07.299Z,35.83
2022-11-03T10:31:41.810Z,37.22
2022-11-03T10:34:35.618Z,38.30
2022-11-03T10:37:24.661Z,35.10
2022-11-03T10:39:54.023Z,36.08
2022-11-03T10:42:21.901Z,32.40
2022-11-03T10:44:52.293Z,36.53
2022-11-03T10:47:35.169Z,35.78
2022-11-03T10:50:22.129Z,42.05
2022-11-03T10:52:54.551Z,35.42
2022-11-03T10:55:25.013Z,35.30
2022-11-03T10:57:54.211Z,37.35
2022-11-03T11:00:21.043Z,36.08
2022-11-03T11:02:49.886Z,35.58
2022-11-03T11:05:25.688Z,34.97
2022-11-03T11:07:53.998Z,38.95
2022-11-03T11:10:31.497Z,43.88
2022-11-03T11:13:17.394Z,44.35
2022-11-03T11:16:04.534Z,41.42
2022-11-03T11:18:31.255Z,43.40
2022-11-03T11:21:22.309Z,40.85
2022-11-03T11:23:49.945Z,37.58
2022-11-03T11:26:17.860Z,37.67
2022-11-03T11:28:47.469Z,41.42
2022-11-03T11:31:32.872Z,39.05
2022-11-03T11:34:11.943Z,41.22
2022-11-03T11:36:46.286Z,38.67
2022-11-03T11:42:18.611Z,37.53
2022-11-03T11:44:45.282Z,39.35
2022-11-03T11:47:24.237Z,40.05
2022-11-03T11:50:06.012Z,39.35
2022-11-03T11:52:34.711Z,38.92
2022-11-03T11:55:05.529Z,36.25
2022-11-03T11:57:35.161Z,39.03
2022-11-03T12:00:02.615Z,37.92
2022-11-03T12:02:33.656Z,37.05
2022-11-03T12:05:05.889Z,32.28
2022-11-03T12:07:37.078Z,35.92
2022-11-03T12:10:13.463Z,34.05
2022-11-03T12:12:40.269Z,33.58
2022-11-03T12:15:27.506Z,30.17
2022-11-03T12:17:54.647Z,30.35
2022-11-03T12:20:46.600Z,36.72
2022-11-03T12:23:35.990Z,32.20
2022-11-03T12:26:06.482Z,35.90
2022-11-03T12:28:35.054Z,38.50
2022-11-03T12:31:04.426Z,39.15
2022-11-03T12:33:31.833Z,36.47
2022-11-03T12:35:58.678Z,36.05
2022-11-03T12:38:26.135Z,34.08
2022-11-03T12:40:52.767Z,34.80
2022-11-03T12:43:19.816Z,32.65
2022-11-03T12:45:46.665Z,36.90
2022-11-03T12:48:13.505Z,37.13
2022-11-03T12:50:40.728Z,34.17
2022-11-03T12:53:07.639Z,36.28
2022-11-03T12:55:39.389Z,35.67
2022-11-03T13:00:35.845Z,32.42
2022-11-03T13:03:05.241Z,30.52
2022-11-03T13:05:32.513Z,35.78
2022-11-03T13:07:59.220Z,32.22
2022-11-03T13:10:34.948Z,34.15
2022-11-03T13:13:01.873Z,31.77
2022-11-03T13:15:28.741Z,32.45
2022-11-03T13:20:42.278Z,32.88
2022-11-03T13:23:09.260Z,29.17
2022-11-03T13:25:36.574Z,30.15
2022-11-03T13:28:03.577Z,28.73
2022-11-03T13:30:31.489Z,31.17
2022-11-03T13:33:00.474Z,29.73
2022-11-03T13:35:27.390Z,32.42
2022-11-03T13:37:54.097Z,30.30
2022-11-03T13:40:55.583Z,32.03
2022-11-03T13:43:07.828Z,31.80
2022-11-03T13:45:36.600Z,31.55
2022-11-03T13:48:57.570Z,30.02
2022-11-03T13:50:50.055Z,32.55
2022-11-03T13:56:08.590Z,33.58
2022-11-03T14:01:22.659Z,32.42
2022-11-03T14:06:36.061Z,31.10
2022-11-03T14:09:06.746Z,31.27
2022-11-03T14:11:33.487Z,29.27
2022-11-03T14:14:00.417Z,29.17
2022-11-03T14:16:27.247Z,27.23
2022-11-03T14:18:54.012Z,29.00
2022-11-03T14:21:20.806Z,31.83
2022-11-03T14:23:47.471Z,29.52
2022-11-03T14:26:32.865Z,31.02
2022-11-03T14:29:03.492Z,29.88
2022-11-03T14:31:30.359Z,32.80
2022-11-03T14:33:57.030Z,32.35
2022-11-03T14:36:24.396Z,31.23
2022-11-03T14:38:51.479Z,29.58
2022-11-03T14:41:23.005Z,30.17
2022-11-03T14:43:49.701Z,32.33
2022-11-03T14:46:21.116Z,35.17
2022-11-03T14:48:47.821Z,31.70
2022-11-03T14:51:14.587Z,33.67
2022-11-03T14:53:41.315Z,33.53
2022-11-03T14:56:08.253Z,34.17
2022-11-03T14:58:34.887Z,34.38
2022-11-03T15:01:01.704Z,35.50
2022-11-03T15:03:28.478Z,34.40
2022-11-03T15:05:55.229Z,32.90
2022-11-03T15:08:23.646Z,33.78
2022-11-03T15:10:51.309Z,24.98
2022-11-03T15:13:18.004Z,31.30
2022-11-03T15:15:44.742Z,31.25
2022-11-03T15:18:11.693Z,28.80
2022-11-03T15:20:38.530Z,30.00
2022-11-03T15:25:56.224Z,33.40
2022-11-03T15:28:23.017Z,29.42
2022-11-03T15:30:49.681Z,27.83
2022-11-03T15:33:16.426Z,32.92
2022-11-03T15:35:43.319Z,30.20
2022-11-03T15:38:11.884Z,30.95
2022-11-03T15:40:39.066Z,30.30
2022-11-03T15:43:05.902Z,29.60
2022-11-03T15:45:34.191Z,30.55
2022-11-03T15:48:01.973Z,32.50
2022-11-03T15:50:28.722Z,30.63
2022-11-03T15:52:55.791Z,28.98
2022-11-03T15:55:22.949Z,31.15
2022-11-03T15:57:50.803Z,27.35
2022-11-03T16:00:18.236Z,29.70
2022-11-03T16:02:46.754Z,30.88
2022-11-03T16:05:14.689Z,31.92
2022-11-03T16:07:41.487Z,30.45
2022-11-03T16:10:08.598Z,30.40
2022-11-03T16:12:41.779Z,31.58
2022-11-03T16:15:09.694Z,28.63
2022-11-03T16:17:39.110Z,27.58
2022-11-03T16:20:09.531Z,29.27
2022-11-03T16:22:36.254Z,29.10
2022-11-03T16:25:05.390Z,28.02
2022-11-03T16:27:36.132Z,30.55
2022-11-03T16:30:03.040Z,29.25
2022-11-03T16:32:32.066Z,29.52
2022-11-03T16:35:01.174Z,26.80
2022-11-03T16:37:27.856Z,29.50
2022-11-03T16:39:54.824Z,31.45
2022-11-03T16:42:21.504Z,32.13
2022-11-03T16:44:53.623Z,32.80
2022-11-03T16:47:20.353Z,34.17
2022-11-03T16:49:48.315Z,34.20
2022-11-03T16:52:15.100Z,33.17
2022-11-03T16:54:41.902Z,39.70
2022-11-03T16:57:08.653Z,36.67
2022-11-03T16:59:35.343Z,34.72
2022-11-03T17:02:02.930Z,35.05
2022-11-03T17:04:29.845Z,37.35
2022-11-03T17:06:56.590Z,36.38
2022-11-03T17:09:23.274Z,33.33
2022-11-03T17:11:50.413Z,35.65
2022-11-03T17:14:24.944Z,35.17
2022-11-03T17:16:51.680Z,32.15
2022-11-03T17:19:18.379Z,35.95
2022-11-03T17:21:45.254Z,37.88
2022-11-03T17:24:12.114Z,40.38
2022-11-03T17:26:51.917Z,37.40
2022-11-03T17:29:22.575Z,38.72
2022-11-03T17:31:50.724Z,41.03
2022-11-03T17:34:21.305Z,37.40
2022-11-03T17:36:48.152Z,40.85
2022-11-03T17:39:16.376Z,44.25
2022-11-03T17:41:43.384Z,40.65
2022-11-03T17:44:12.180Z,46.72
2022-11-03T17:46:39.492Z,43.10
2022-11-03T17:49:07.340Z,45.15
2022-11-03T17:51:42.210Z,45.90
2022-11-03T17:54:15.765Z,44.72
2022-11-03T17:56:42.829Z,47.08
2022-11-03T17:59:14.041Z,46.47
2022-11-03T18:01:41.121Z,50.50
2022-11-03T18:07:08.825Z,51.63
2022-11-03T18:09:40.263Z,48.47
2022-11-03T18:12:09.480Z,49.33
2022-11-03T18:14:36.212Z,50.17
2022-11-03T18:17:03.029Z,50.55
2022-11-03T18:19:31.988Z,49.78
2022-11-03T18:22:02.339Z,51.88
2022-11-03T18:24:30.536Z,50.95
2022-11-03T18:26:57.466Z,51.30
2022-11-03T18:29:24.228Z,51.75
2022-11-03T18:31:51.283Z,50.97
2022-11-03T18:34:43.029Z,52.78
2022-11-03T18:37:15.276Z,51.25
2022-11-03T18:39:43.013Z,49.47
2022-11-03T18:42:18.394Z,52.28
2022-11-03T18:44:45.713Z,55.05
2022-11-03T18:47:15.222Z,53.50
2022-11-03T18:49:42.753Z,53.42
2022-11-03T18:52:14.896Z,51.05
2022-11-03T18:54:45.725Z,53.80
2022-11-03T18:57:13.431Z,54.97
2022-11-03T18:59:46.138Z,53.92
2022-11-03T19:02:19.530Z,56.45
2022-11-03T19:04:46.991Z,49.73
2022-11-03T19:07:17.317Z,54.75
2022-11-03T19:09:44.449Z,57.33
2022-11-03T19:12:15.299Z,57.88
2022-11-03T19:14:47.426Z,55.85
2022-11-03T19:17:23.328Z,56.20
2022-11-03T19:19:52.656Z,52.85
2022-11-03T19:22:25.812Z,50.05
2022-11-03T19:24:52.565Z,49.47
2022-11-03T19:27:25.444Z,51.00
2022-11-03T19:29:52.884Z,48.72
2022-11-03T19:32:37.046Z,51.15
2022-11-03T19:35:14.762Z,52.78
2022-11-03T19:37:42.835Z,54.78
2022-11-03T19:40:14.689Z,52.03
2022-11-03T19:42:41.485Z,50.35
2022-11-03T19:45:15.006Z,51.63
2022-11-03T19:48:18.221Z,49.87
2022-11-03T19:50:36.828Z,53.67
2022-11-03T19:53:07.393Z,49.72
2022-11-03T19:55:42.236Z,49.47
2022-11-03T19:58:13.847Z,46.53
2022-11-03T20:00:42.953Z,55.58
2022-11-03T20:03:09.805Z,58.83
2022-11-03T20:05:43.958Z,54.90
2022-11-03T20:08:21.327Z,62.50
2022-11-03T20:10:48.476Z,58.22
2022-11-03T20:13:17.832Z,58.38
2022-11-03T20:15:45.730Z,48.38
2022-11-03T20:18:13.017Z,56.13
2022-11-03T20:20:41.505Z,56.20
2022-11-03T20:23:26.277Z,58.20
2022-11-03T20:28:25.671Z,54.35
2022-11-03T20:30:53.517Z,59.90
2022-11-03T20:33:22.832Z,61.67
2022-11-03T20:35:51.319Z,58.83
2022-11-03T20:38:20.480Z,64.15
2022-11-03T20:40:49.661Z,68.53
2022-11-03T20:43:29.582Z,66.03
2022-11-03T20:45:57.164Z,64.68
2022-11-03T20:48:24.742Z,67.97
2022-11-03T20:50:52.550Z,67.97
2022-11-03T20:53:26.050Z,68.60
2022-11-03T20:55:53.493Z,64.30
2022-11-03T20:58:20.275Z,61.88
2022-11-03T21:00:48.687Z,63.85
2022-11-03T21:03:37.909Z,65.68
2022-11-03T21:06:07.666Z,58.42
2022-11-03T21:08:34.401Z,63.25
2022-11-03T21:11:01.100Z,62.10
2022-11-03T21:13:27.936Z,66.30
2022-11-03T21:16:22.435Z,63.88
2022-11-03T21:18:41.616Z,62.75
2022-11-03T21:21:11.143Z,59.90
2022-11-03T21:23:38.544Z,64.47
2022-11-03T21:26:05.905Z,56.15
2022-11-03T21:28:32.661Z,60.45
2022-11-03T21:31:00.508Z,55.20
2022-11-03T21:33:27.278Z,56.92
2022-11-03T21:35:54.716Z,60.55
2022-11-03T21:38:21.835Z,60.33
2022-11-03T21:40:56.281Z,55.80
2022-11-03T21:43:23.245Z,56.63
2022-11-03T21:45:50.713Z,57.22
2022-11-03T21:48:20.088Z,54.58
2022-11-03T21:50:48.137Z,52.15
2022-11-03T21:53:15.124Z,52.35
2022-11-03T21:55:43.172Z,56.22
2022-11-03T21:58:10.232Z,54.72
2022-11-03T22:00:36.969Z,58.20
2022-11-03T22:03:04.509Z,56.53
2022-11-03T22:05:31.415Z,56.88
2022-11-03T22:07:58.158Z,48.75
2022-11-03T22:10:27.775Z,53.60
2022-11-03T22:12:54.611Z,53.75
2022-11-03T22:15:21.885Z,53.70
2022-11-03T22:17:48.769Z,50.10
2022-11-03T22:20:18.524Z,44.15
2022-11-03T22:22:45.327Z,55.22
2022-11-03T22:25:12.020Z,44.22
2022-11-03T22:27:38.829Z,46.95
2022-11-03T22:30:08.843Z,49.78
2022-11-03T22:32:39.470Z,50.60
2022-11-03T22:35:14.692Z,42.45
2022-11-03T22:37:41.398Z,47.95
2022-11-03T22:40:08.798Z,45.63
2022-11-03T22:42:35.579Z,45.28
2022-11-03T22:45:04.317Z,47.40
2022-11-03T22:47:31.369Z,45.17
2022-11-03T22:49:58.033Z,49.38
2022-11-03T22:52:24.706Z,44.17
2022-11-03T22:54:51.399Z,45.95
2022-11-03T22:57:18.335Z,45.20
2022-11-03T22:59:45.018Z,42.00
2022-11-03T23:02:11.756Z,44.47
2022-11-03T23:04:38.492Z,44.90
2022-11-03T23:07:05.234Z,47.00
2022-11-03T23:09:31.978Z,48.65
2022-11-03T23:11:58.899Z,45.03
2022-11-03T23:14:25.777Z,50.03
2022-11-03T23:16:52.470Z,46.83
2022-11-03T23:19:19.147Z,48.42
2022-11-03T23:21:49.395Z,43.40
2022-11-03T23:24:16.503Z,47.15
2022-11-03T23:26:43.776Z,49.40
2022-11-03T23:29:14.266Z,47.50
2022-11-03T23:31:42.741Z,48.30
2022-11-03T23:34:10.460Z,45.72
2022-11-03T23:36:38.020Z,45.65
2022-11-03T23:39:05.715Z,47.90
2022-11-03T23:41:36.325Z,50.08
2022-11-03T23:44:03.116Z,51.90
2022-11-03T23:46:29.773Z,51.10
2022-11-03T23:48:59.536Z,49.45
2022-11-03T23:51:29.747Z,45.00
2022-11-03T23:53:58.918Z,45.00
2022-11-03T23:56:29.631Z,44.20
2022-11-03T23:58:56.580Z,37.58
